Time;durP1;ratioP1;P1;durP2;ratioP2;P2;SDS_P1;SDS_P2;PMS_P1;PMS_P2;Temp;Humidity;BMP_temperature;BMP_pressure;BME280_temperature;BME280_humidity;BME280_pressure;Samples;Min_cycle;Max_cycle;Signal;HPM_P1;HPM_P2
2023/05/02 00:00:18;;;;;;;2.88;1.23;;;;;;;;;;1027420;28;20037;-74
2023/05/02 00:00:49;;;;;;;3.60;1.77;;;;;;;;;;1026968;28;20018;-75
2023/05/02 00:01:20;;;;;;;2.55;0.47;;;;;;;;;;1027343;28;20034;-74
2023/05/02 00:01:50;;;;;;;1.90;1.73;;;;;;;;;;1026138;28;20455;-75
2023/05/02 00:02:21;;;;;;;5.80;0.90;;;;;;;;;;1027250;28;20038;-75
2023/05/02 00:02:51;;;;;;;1.10;0.93;;;;;;;;;;1027223;28;20058;-74
2023/05/02 00:03:22;;;;;;;0.40;0.40;;;;;;;;;;1026623;28;20122;-75
2023/05/02 00:03:52;;;;;;;5.28;1.17;;;;;;;;;;1027543;28;20027;-75
2023/05/02 00:04:23;;;;;;;10.70;1.65;;;;;;;;;;1027715;28;20426;-76
2023/05/02 00:04:53;;;;;;;1.92;1.25;;;;;;;;;;1027809;28;20027;-73
2023/05/02 00:05:24;;;;;;;1.98;1.45;;;;;;;;;;1027604;28;20030;-75
2023/05/02 00:05:54;;;;;;;1.02;0.93;;;;;;;;;;1027179;28;20153;-75
2023/05/02 00:06:25;;;;;;;1.45;1.17;;;;;;;;;;1027238;28;20026;-75
2023/05/02 00:06:55;;;;;;;1.17;1.05;;;;;;;;;;1027425;28;20062;-74
2023/05/02 00:07:26;;;;;;;2.13;1.58;;;;;;;;;;1024341;29;20027;-75
2023/05/02 00:07:56;;;;;;;0.43;0.40;;;;;;;;;;1020470;29;20489;-75
2023/05/02 00:08:27;;;;;;;0.63;0.55;;;;;;;;;;1020668;29;20503;-73
2023/05/02 00:08:57;;;;;;;3.95;2.20;;;;;;;;;;1020673;29;20130;-73
2023/05/02 00:09:28;;;;;;;0.93;0.90;;;;;;;;;;1024737;28;20059;-75
2023/05/02 00:10:01;;;;;;;4.03;1.95;;;;;;;;;;1028828;28;20023;-75
2023/05/02 00:10:31;;;;;;;2.80;0.90;;;;;;;;;;1028959;28;20226;-73
2023/05/02 00:11:02;;;;;;;0.65;0.65;;;;;;;;;;1028820;28;20491;-73
2023/05/02 00:11:32;;;;;;;1.98;1.02;;;;;;;;;;1030070;28;20489;-75
2023/05/02 00:12:03;;;;;;;2.33;2.13;;;;;;;;;;1028785;28;20489;-74
2023/05/02 00:12:33;;;;;;;2.45;2.25;;;;;;;;;;1028974;28;20130;-75
2023/05/02 00:13:04;;;;;;;2.70;1.58;;;;;;;;;;1028710;28;20018;-74
2023/05/02 00:13:34;;;;;;;0.65;0.55;;;;;;;;;;1028671;28;20113;-75
2023/05/02 00:14:05;;;;;;;1.08;0.43;;;;;;;;;;1028448;28;20030;-74
2023/05/02 00:14:35;;;;;;;2.22;1.63;;;;;;;;;;1028575;28;20054;-77
2023/05/02 00:15:06;;;;;;;1.83;1.63;;;;;;;;;;1028429;28;20034;-76
2023/05/02 00:15:37;;;;;;;0.55;0.52;;;;;;;;;;1024310;29;20254;-76
2023/05/02 00:16:07;;;;;;;0.68;0.63;;;;;;;;;;1024455;28;20062;-76
2023/05/02 00:16:38;;;;;;;0.60;0.55;;;;;;;;;;1028600;28;20045;-74
2023/05/02 00:17:08;;;;;;;1.75;1.50;;;;;;;;;;1028473;28;20029;-74
2023/05/02 00:17:40;;;;;;;0.35;0.35;;;;;;;;;;1028600;28;20093;-76
2023/05/02 00:18:10;;;;;;;2.83;2.45;;;;;;;;;;1028519;28;20043;-74
2023/05/02 00:18:41;;;;;;;2.78;1.45;;;;;;;;;;1029230;28;20031;-74
2023/05/02 00:19:11;;;;;;;1.00;0.95;;;;;;;;;;1028332;28;20028;-75
2023/05/02 00:19:42;;;;;;;0.40;0.38;;;;;;;;;;1028913;28;20057;-75
2023/05/02 00:20:12;;;;;;;1.35;1.25;;;;;;;;;;1028785;28;20054;-75
2023/05/02 00:20:44;;;;;;;0.70;0.70;;;;;;;;;;1026598;28;20019;-76
2023/05/02 00:21:14;;;;;;;1.15;0.98;;;;;;;;;;1027189;28;20036;-74
2023/05/02 00:21:48;;;;;;;1.55;1.35;;;;;;;;;;1026291;28;20538;-75
2023/05/02 00:22:18;;;;;;;3.10;1.75;;;;;;;;;;1026629;28;20434;-74
2023/05/02 00:22:49;;;;;;;0.68;0.55;;;;;;;;;;1027787;28;20034;-74
2023/05/02 00:23:20;;;;;;;0.57;0.57;;;;;;;;;;1028897;28;20074;-73
2023/05/02 00:23:50;;;;;;;0.38;0.38;;;;;;;;;;1028731;28;20027;-73
2023/05/02 00:24:21;;;;;;;3.72;0.60;;;;;;;;;;1028828;28;20438;-75
2023/05/02 00:24:56;;;;;;;4.57;1.27;;;;;;;;;;1028764;28;20026;-73
2023/05/02 00:25:26;;;;;;;0.57;0.50;;;;;;;;;;1028269;28;20054;-73
2023/05/02 00:25:57;;;;;;;1.60;1.05;;;;;;;;;;1028613;28;20478;-73
2023/05/02 00:26:27;;;;;;;0.82;0.57;;;;;;;;;;1028806;28;20395;-74
2023/05/02 00:26:58;;;;;;;1.95;0.90;;;;;;;;;;1028873;28;20082;-74
2023/05/02 00:27:29;;;;;;;2.72;1.10;;;;;;;;;;1028850;28;20027;-73
2023/05/02 00:27:59;;;;;;;2.40;1.45;;;;;;;;;;1028808;28;20033;-75
2023/05/02 00:28:30;;;;;;;2.15;1.35;;;;;;;;;;1028922;28;20026;-75
2023/05/02 00:29:01;;;;;;;0.60;0.60;;;;;;;;;;1028947;28;20050;-75
2023/05/02 00:29:31;;;;;;;0.25;0.25;;;;;;;;;;1028785;28;20089;-74
2023/05/02 00:30:02;;;;;;;1.25;1.17;;;;;;;;;;1028739;28;20027;-76
2023/05/02 00:30:33;;;;;;;0.75;0.70;;;;;;;;;;1029291;28;20026;-75
2023/05/02 00:31:03;;;;;;;1.23;1.10;;;;;;;;;;1027938;28;20026;-74
2023/05/02 00:31:35;;;;;;;0.75;0.60;;;;;;;;;;1028184;28;20026;-76
2023/05/02 00:32:05;;;;;;;0.95;0.95;;;;;;;;;;1028457;28;20035;-74
2023/05/02 00:32:36;;;;;;;4.85;1.55;;;;;;;;;;1028546;28;20033;-74
2023/05/02 00:33:07;;;;;;;3.35;2.08;;;;;;;;;;1028019;28;20043;-76
2023/05/02 00:33:37;;;;;;;1.65;0.50;;;;;;;;;;1028918;28;20026;-74
2023/05/02 00:34:08;;;;;;;4.07;1.60;;;;;;;;;;1028697;28;20093;-74
2023/05/02 00:34:38;;;;;;;0.45;0.45;;;;;;;;;;1028917;28;20121;-76
2023/05/02 00:35:09;;;;;;;1.55;0.85;;;;;;;;;;1028094;28;20026;-74
2023/05/02 00:35:39;;;;;;;2.20;1.13;;;;;;;;;;1028652;28;20077;-75
2023/05/02 00:36:13;;;;;;;2.80;1.23;;;;;;;;;;1024400;29;20023;-75
2023/05/02 00:36:44;;;;;;;2.38;1.02;;;;;;;;;;1024318;28;20059;-74
2023/05/02 00:37:15;;;;;;;4.07;1.30;;;;;;;;;;1023822;29;20033;-75
2023/05/02 00:37:45;;;;;;;1.98;1.10;;;;;;;;;;1020260;29;20094;-75
2023/05/02 00:38:16;;;;;;;4.70;1.65;;;;;;;;;;1024543;29;20034;-74
2023/05/02 00:38:46;;;;;;;1.90;1.08;;;;;;;;;;1024402;29;20484;-76
2023/05/02 00:39:17;;;;;;;2.25;1.35;;;;;;;;;;1023176;28;20515;-73
2023/05/02 00:39:47;;;;;;;1.35;1.02;;;;;;;;;;1028452;28;20410;-75
2023/05/02 00:40:18;;;;;;;2.10;1.27;;;;;;;;;;1028679;28;20066;-73
2023/05/02 00:40:52;;;;;;;2.72;1.40;;;;;;;;;;1029441;28;20306;-75
2023/05/02 00:41:23;;;;;;;1.65;1.55;;;;;;;;;;1028189;28;20031;-75
2023/05/02 00:41:57;;;;;;;20.17;1.85;;;;;;;;;;1029186;28;20022;-74
2023/05/02 00:42:30;;;;;;;7.72;1.67;;;;;;;;;;1028544;28;20034;-73
2023/05/02 00:43:01;;;;;;;0.52;0.52;;;;;;;;;;1027917;28;20085;-75
2023/05/02 00:43:31;;;;;;;7.03;1.90;;;;;;;;;;1028145;28;20027;-74
2023/05/02 00:44:02;;;;;;;1.27;0.68;;;;;;;;;;1028793;28;20027;-74
2023/05/02 00:44:32;;;;;;;0.80;0.68;;;;;;;;;;1028859;28;21157;-74
2023/05/02 00:45:05;;;;;;;1.48;1.02;;;;;;;;;;1028623;28;20033;-73
2023/05/02 00:45:35;;;;;;;4.15;2.38;;;;;;;;;;1027873;28;20031;-73
2023/05/02 00:46:07;;;;;;;3.45;2.60;;;;;;;;;;1028687;28;20018;-75
2023/05/02 00:46:40;;;;;;;2.20;1.35;;;;;;;;;;1027880;28;20498;-77
2023/05/02 00:47:10;;;;;;;2.15;1.25;;;;;;;;;;1028704;28;20018;-74
2023/05/02 00:47:41;;;;;;;5.85;1.83;;;;;;;;;;1028856;28;20443;-74
2023/05/02 00:48:12;;;;;;;0.88;0.88;;;;;;;;;;1028479;28;20015;-74
2023/05/02 00:48:44;;;;;;;0.95;0.90;;;;;;;;;;1028409;28;20027;-74
2023/05/02 00:49:14;;;;;;;1.55;1.15;;;;;;;;;;1028074;28;20035;-76
2023/05/02 00:49:44;;;;;;;1.35;1.17;;;;;;;;;;1028235;28;20026;-75
2023/05/02 00:50:16;;;;;;;8.68;2.25;;;;;;;;;;1028843;28;20491;-75
2023/05/02 00:50:47;;;;;;;11.43;1.20;;;;;;;;;;1028261;28;20109;-73
2023/05/02 00:51:17;;;;;;;4.78;1.08;;;;;;;;;;1028828;28;20034;-76
2023/05/02 00:51:48;;;;;;;1.33;1.23;;;;;;;;;;1028160;28;20027;-75
2023/05/02 00:52:19;;;;;;;1.73;1.08;;;;;;;;;;1028701;28;20034;-74
2023/05/02 00:52:50;;;;;;;1.27;1.05;;;;;;;;;;1028433;28;20049;-73
2023/05/02 00:53:20;;;;;;;2.38;1.52;;;;;;;;;;1028877;28;20117;-74
2023/05/02 00:53:51;;;;;;;4.75;2.47;;;;;;;;;;1025544;28;20026;-76
2023/05/02 00:54:21;;;;;;;2.40;1.42;;;;;;;;;;1026124;28;20031;-74
2023/05/02 00:54:52;;;;;;;1.23;0.73;;;;;;;;;;1026333;28;20042;-74
2023/05/02 00:55:23;;;;;;;0.32;0.32;;;;;;;;;;1025352;28;20051;-78
2023/05/02 00:55:54;;;;;;;1.08;0.73;;;;;;;;;;1028759;28;20470;-76
2023/05/02 00:56:25;;;;;;;0.90;0.70;;;;;;;;;;1028101;28;20034;-74
2023/05/02 00:56:56;;;;;;;0.93;0.73;;;;;;;;;;1028895;28;20018;-74
2023/05/02 00:57:26;;;;;;;2.00;1.80;;;;;;;;;;1028612;28;20018;-73
2023/05/02 00:57:57;;;;;;;1.67;1.23;;;;;;;;;;1027615;28;20598;-74
2023/05/02 00:58:28;;;;;;;1.45;1.02;;;;;;;;;;1028697;28;20089;-74
2023/05/02 00:59:00;;;;;;;3.33;2.30;;;;;;;;;;1028411;28;20474;-77
2023/05/02 00:59:30;;;;;;;4.55;2.40;;;;;;;;;;1028791;28;20049;-74
2023/05/02 01:00:03;;;;;;;2.63;2.25;;;;;;;;;;1028357;28;20125;-75
2023/05/02 01:00:46;;;;;;;4.30;1.42;;;;;;;;;;1029207;28;20177;-75
2023/05/02 01:01:35;;;;;;;0.60;0.60;;;;;;;;;;1026431;28;20029;-74
2023/05/02 01:02:21;;;;;;;1.33;0.43;;;;;;;;;;1028514;28;20113;-75
2023/05/02 01:03:01;;;;;;;1.33;1.23;;;;;;;;;;1028671;28;20023;-76
2023/05/02 01:03:50;;;;;;;5.18;1.05;;;;;;;;;;1028776;28;20034;-76
2023/05/02 01:04:21;;;;;;;0.40;0.40;;;;;;;;;;1027806;28;20038;-75
2023/05/02 01:05:10;;;;;;;9.73;1.33;;;;;;;;;;1029021;28;20027;-75
2023/05/02 01:06:00;;;;;;;1.95;0.85;;;;;;;;;;1028482;28;20027;-73
2023/05/02 01:06:50;;;;;;;1.00;0.68;;;;;;;;;;1027772;28;20034;-76
2023/05/02 01:07:27;;;;;;;1.25;0.82;;;;;;;;;;1028115;28;20511;-74
2023/05/02 01:07:58;;;;;;;3.17;2.42;;;;;;;;;;1028634;28;20479;-76
2023/05/02 01:08:41;;;;;;;1.60;1.35;;;;;;;;;;1028716;28;20026;-75
2023/05/02 01:09:17;;;;;;;1.02;0.65;;;;;;;;;;1028431;28;20031;-75
2023/05/02 01:09:57;;;;;;;5.05;1.48;;;;;;;;;;1027792;28;20534;-74
2023/05/02 01:10:30;;;;;;;4.30;3.03;;;;;;;;;;1028192;28;20229;-77
2023/05/02 01:11:13;;;;;;;0.75;0.35;;;;;;;;;;1028414;28;20023;-76
2023/05/02 01:12:07;;;;;;;4.13;2.70;;;;;;;;;;1028701;28;20030;-74
2023/05/02 01:12:41;;;;;;;6.43;1.55;;;;;;;;;;1021808;28;20591;-75
2023/05/02 01:13:15;;;;;;;1.88;1.40;;;;;;;;;;1027721;28;20387;-75
2023/05/02 01:13:46;;;;;;;1.60;0.75;;;;;;;;;;1028492;28;20023;-74
2023/05/02 01:14:17;;;;;;;1.08;0.65;;;;;;;;;;1028715;28;20027;-73
2023/05/02 01:14:52;;;;;;;2.22;0.90;;;;;;;;;;1024276;29;20027;-73
2023/05/02 01:15:23;;;;;;;6.95;1.23;;;;;;;;;;1023965;29;20523;-74
2023/05/02 01:15:55;;;;;;;1.17;0.80;;;;;;;;;;1024069;29;20023;-74
2023/05/02 01:16:26;;;;;;;0.47;0.47;;;;;;;;;;1024484;28;20110;-75
2023/05/02 01:16:57;;;;;;;0.88;0.85;;;;;;;;;;1028613;28;20061;-74
2023/05/02 01:17:31;;;;;;;1.80;1.63;;;;;;;;;;1028529;28;20085;-74
2023/05/02 01:18:03;;;;;;;11.75;2.08;;;;;;;;;;1027831;28;20390;-74
2023/05/02 01:18:35;;;;;;;7.40;2.38;;;;;;;;;;1027496;28;20031;-73
2023/05/02 01:19:08;;;;;;;0.90;0.77;;;;;;;;;;1026987;28;20460;-74
2023/05/02 01:19:42;;;;;;;8.30;2.45;;;;;;;;;;1026781;28;20027;-74
2023/05/02 01:20:15;;;;;;;2.78;1.77;;;;;;;;;;1026931;28;20022;-75
2023/05/02 01:20:47;;;;;;;2.05;1.88;;;;;;;;;;1025720;28;20019;-74
2023/05/02 01:21:17;;;;;;;1.65;1.52;;;;;;;;;;1022400;29;20027;-76
2023/05/02 01:21:48;;;;;;;2.58;1.80;;;;;;;;;;1015877;29;20472;-75
2023/05/02 01:22:20;;;;;;;20.85;1.67;;;;;;;;;;1013992;29;20039;-75
2023/05/02 01:22:51;;;;;;;2.65;1.10;;;;;;;;;;1018318;29;20125;-74
2023/05/02 01:23:24;;;;;;;1.65;1.55;;;;;;;;;;1017566;29;20506;-73
2023/05/02 01:24:11;;;;;;;0.80;0.75;;;;;;;;;;1022740;29;20039;-76
2023/05/02 01:24:52;;;;;;;3.13;1.52;;;;;;;;;;1018930;29;20028;-74
2023/05/02 01:25:29;;;;;;;0.63;0.30;;;;;;;;;;1020543;28;20027;-74
2023/05/02 01:26:15;;;;;;;2.05;1.75;;;;;;;;;;1021487;28;20043;-75
2023/05/02 01:26:58;;;;;;;5.32;1.13;;;;;;;;;;1026653;28;20134;-77
2023/05/02 01:27:28;;;;;;;1.60;0.60;;;;;;;;;;1022433;28;20031;-74
2023/05/02 01:28:13;;;;;;;1.40;0.85;;;;;;;;;;1025187;28;20039;-74
2023/05/02 01:28:52;;;;;;;2.03;1.40;;;;;;;;;;1024544;28;20066;-74
2023/05/02 01:29:22;;;;;;;0.50;0.50;;;;;;;;;;1024994;28;20026;-74
2023/05/02 01:29:55;;;;;;;0.95;0.95;;;;;;;;;;1026247;28;20077;-75
2023/05/02 01:30:27;;;;;;;0.40;0.40;;;;;;;;;;1025773;28;20022;-75
2023/05/02 01:30:58;;;;;;;4.70;2.08;;;;;;;;;;1025755;28;20035;-75
2023/05/02 01:31:31;;;;;;;1.15;1.05;;;;;;;;;;1025632;28;20113;-76
2023/05/02 01:32:03;;;;;;;1.20;0.80;;;;;;;;;;1026084;28;20030;-76
2023/05/02 01:32:34;;;;;;;0.68;0.65;;;;;;;;;;1024343;28;20034;-76
2023/05/02 01:33:05;;;;;;;1.08;0.40;;;;;;;;;;1025307;28;20372;-76
2023/05/02 01:33:35;;;;;;;3.63;1.20;;;;;;;;;;1025679;28;20122;-73
2023/05/02 01:34:08;;;;;;;1.55;0.82;;;;;;;;;;1026441;28;20427;-73
2023/05/02 01:34:41;;;;;;;1.58;1.17;;;;;;;;;;1025925;28;20045;-76
2023/05/02 01:35:13;;;;;;;5.78;4.43;;;;;;;;;;1024599;28;20744;-73
2023/05/02 01:35:45;;;;;;;0.88;0.88;;;;;;;;;;1021245;28;20596;-76
2023/05/02 01:36:16;;;;;;;2.35;1.25;;;;;;;;;;1021875;28;21744;-73
2023/05/02 01:36:47;;;;;;;1.35;1.17;;;;;;;;;;1022055;28;20031;-74
2023/05/02 01:37:19;;;;;;;7.68;3.25;;;;;;;;;;1021658;28;20159;-73
2023/05/02 01:37:51;;;;;;;1.58;1.02;;;;;;;;;;1026224;28;20031;-75
2023/05/02 01:38:24;;;;;;;4.32;1.38;;;;;;;;;;1025707;28;20054;-75
2023/05/02 01:38:55;;;;;;;2.55;1.90;;;;;;;;;;1026807;28;21639;-77
2023/05/02 01:39:26;;;;;;;3.08;1.52;;;;;;;;;;1026016;28;20379;-75
2023/05/02 01:39:58;;;;;;;4.78;2.10;;;;;;;;;;1025774;28;20035;-75
2023/05/02 01:40:28;;;;;;;1.45;0.65;;;;;;;;;;1024721;28;20106;-75
2023/05/02 01:41:02;;;;;;;0.50;0.50;;;;;;;;;;1026559;28;20445;-74
2023/05/02 01:41:33;;;;;;;0.88;0.80;;;;;;;;;;1025595;28;20065;-73
2023/05/02 01:42:04;;;;;;;2.50;1.40;;;;;;;;;;1024881;28;20034;-74
2023/05/02 01:42:35;;;;;;;1.85;0.77;;;;;;;;;;1025086;28;20031;-74
2023/05/02 01:43:07;;;;;;;1.50;1.23;;;;;;;;;;1024678;28;20026;-75
2023/05/02 01:43:38;;;;;;;2.28;1.38;;;;;;;;;;1023733;28;20498;-74
2023/05/02 01:44:09;;;;;;;8.35;2.17;;;;;;;;;;1021630;28;20042;-76
2023/05/02 01:44:41;;;;;;;1.85;1.33;;;;;;;;;;1025793;28;20025;-75
2023/05/02 01:45:12;;;;;;;2.28;0.82;;;;;;;;;;1024683;28;20038;-75
2023/05/02 01:45:43;;;;;;;4.47;0.45;;;;;;;;;;1026382;28;20023;-74
2023/05/02 01:46:14;;;;;;;2.65;1.25;;;;;;;;;;1025678;28;20491;-75
2023/05/02 01:46:45;;;;;;;0.40;0.40;;;;;;;;;;1026351;28;20027;-75
2023/05/02 01:47:16;;;;;;;1.75;0.63;;;;;;;;;;1020840;28;20038;-76
2023/05/02 01:47:47;;;;;;;1.63;1.33;;;;;;;;;;1021604;28;20105;-77
2023/05/02 01:48:18;;;;;;;2.72;0.82;;;;;;;;;;1017810;29;20578;-74
2023/05/02 01:48:50;;;;;;;4.68;2.05;;;;;;;;;;1020094;29;20033;-74
2023/05/02 01:49:22;;;;;;;1.90;1.35;;;;;;;;;;1021635;28;20677;-76
2023/05/02 01:49:53;;;;;;;2.75;1.92;;;;;;;;;;1024132;28;20031;-76
2023/05/02 01:50:24;;;;;;;1.38;1.27;;;;;;;;;;1025854;28;20038;-75
2023/05/02 01:50:56;;;;;;;1.55;0.75;;;;;;;;;;1026115;28;20034;-76
2023/05/02 01:51:30;;;;;;;0.80;0.80;;;;;;;;;;1026758;28;20574;-76
2023/05/02 01:52:02;;;;;;;2.72;1.50;;;;;;;;;;1025494;28;20614;-76
2023/05/02 01:52:33;;;;;;;1.35;0.75;;;;;;;;;;1027269;28;20507;-74
2023/05/02 01:53:04;;;;;;;0.82;0.65;;;;;;;;;;1021953;28;20031;-76
2023/05/02 01:53:35;;;;;;;8.27;2.15;;;;;;;;;;1023316;28;20472;-76
2023/05/02 01:54:07;;;;;;;3.53;1.70;;;;;;;;;;1019560;28;20027;-75
2023/05/02 01:54:38;;;;;;;0.52;0.52;;;;;;;;;;1024298;28;20113;-76
2023/05/02 01:55:12;;;;;;;1.25;0.93;;;;;;;;;;1024451;28;20485;-75
2023/05/02 01:55:44;;;;;;;1.15;0.85;;;;;;;;;;1025018;28;20172;-74
2023/05/02 01:56:17;;;;;;;1.35;1.25;;;;;;;;;;1023871;28;20066;-76
2023/05/02 01:56:48;;;;;;;1.75;1.40;;;;;;;;;;1025342;28;20026;-77
2023/05/02 01:57:19;;;;;;;7.05;1.35;;;;;;;;;;1021140;28;20106;-77
2023/05/02 01:57:52;;;;;;;1.23;0.95;;;;;;;;;;1023360;28;20023;-77
2023/05/02 01:58:24;;;;;;;1.45;1.15;;;;;;;;;;1025616;28;20023;-76
2023/05/02 01:58:55;;;;;;;0.85;0.85;;;;;;;;;;1026059;28;20023;-76
2023/05/02 01:59:27;;;;;;;2.70;1.35;;;;;;;;;;1022991;28;20031;-76
2023/05/02 01:59:58;;;;;;;0.20;0.20;;;;;;;;;;1022522;28;20027;-76
2023/05/02 02:00:30;;;;;;;1.60;0.52;;;;;;;;;;1022660;28;20447;-75
2023/05/02 02:01:01;;;;;;;2.42;2.00;;;;;;;;;;1020336;28;20038;-75
2023/05/02 02:01:34;;;;;;;2.88;1.33;;;;;;;;;;1021583;28;20137;-77
2023/05/02 02:02:05;;;;;;;1.30;1.10;;;;;;;;;;1020927;29;20027;-77
2023/05/02 02:02:36;;;;;;;3.60;1.35;;;;;;;;;;1022346;29;20075;-77
2023/05/02 02:03:08;;;;;;;1.98;1.30;;;;;;;;;;1021629;29;20558;-75
2023/05/02 02:03:38;;;;;;;1.13;0.88;;;;;;;;;;1023066;28;20029;-77
2023/05/02 02:04:10;;;;;;;1.33;0.68;;;;;;;;;;1025575;28;20035;-74
2023/05/02 02:04:41;;;;;;;0.60;0.60;;;;;;;;;;1025704;28;20082;-76
2023/05/02 02:05:13;;;;;;;3.05;1.83;;;;;;;;;;1025158;28;20026;-75
2023/05/02 02:05:44;;;;;;;1.02;0.57;;;;;;;;;;1025115;28;20390;-75
2023/05/02 02:06:15;;;;;;;4.22;1.13;;;;;;;;;;1025812;28;20406;-75
2023/05/02 02:06:47;;;;;;;2.22;0.85;;;;;;;;;;1026439;28;20102;-74
2023/05/02 02:07:18;;;;;;;1.08;0.98;;;;;;;;;;1025172;28;20046;-76
2023/05/02 02:07:49;;;;;;;1.33;1.02;;;;;;;;;;1026055;28;20027;-75
2023/05/02 02:08:19;;;;;;;0.47;0.45;;;;;;;;;;1025182;28;20586;-75
2023/05/02 02:08:50;;;;;;;2.75;0.75;;;;;;;;;;1026672;28;20470;-77
2023/05/02 02:09:20;;;;;;;22.35;2.67;;;;;;;;;;1025949;28;20035;-74
2023/05/02 02:09:53;;;;;;;15.93;1.48;;;;;;;;;;1026978;28;20513;-76
2023/05/02 02:10:26;;;;;;;1.27;1.05;;;;;;;;;;1025127;28;20031;-75
2023/05/02 02:10:58;;;;;;;3.40;1.20;;;;;;;;;;1025785;28;20027;-75
2023/05/02 02:11:42;;;;;;;1.77;1.10;;;;;;;;;;1022376;28;20031;-76
2023/05/02 02:12:19;;;;;;;2.72;0.88;;;;;;;;;;1022217;29;20031;-76
2023/05/02 02:12:56;;;;;;;0.95;0.85;;;;;;;;;;1021051;29;20532;-74
2023/05/02 02:13:33;;;;;;;3.53;1.40;;;;;;;;;;1024236;28;20278;-76
2023/05/02 02:14:11;;;;;;;2.05;0.70;;;;;;;;;;1024937;28;20019;-73
2023/05/02 02:14:44;;;;;;;1.15;0.88;;;;;;;;;;1024824;28;20033;-76
2023/05/02 02:15:15;;;;;;;1.10;0.47;;;;;;;;;;1019919;29;20050;-74
2023/05/02 02:15:48;;;;;;;1.13;0.60;;;;;;;;;;1020181;29;20111;-75
2023/05/02 02:16:23;;;;;;;2.03;0.75;;;;;;;;;;1020752;28;20093;-76
2023/05/02 02:16:56;;;;;;;2.58;1.52;;;;;;;;;;1020509;28;21602;-76
2023/05/02 02:17:29;;;;;;;1.35;0.80;;;;;;;;;;1020355;29;20065;-77
2023/05/02 02:18:04;;;;;;;0.30;0.30;;;;;;;;;;1019838;28;20915;-76
2023/05/02 02:18:35;;;;;;;2.03;1.33;;;;;;;;;;1019033;29;20032;-76
2023/05/02 02:19:09;;;;;;;1.50;1.08;;;;;;;;;;1021531;28;20122;-75
2023/05/02 02:19:40;;;;;;;0.38;0.38;;;;;;;;;;1024025;28;20030;-74
2023/05/02 02:20:12;;;;;;;0.82;0.43;;;;;;;;;;1023772;28;20070;-75
2023/05/02 02:20:44;;;;;;;1.25;0.82;;;;;;;;;;1020808;29;20035;-76
2023/05/02 02:21:17;;;;;;;0.80;0.70;;;;;;;;;;1020286;29;21150;-76
2023/05/02 02:21:48;;;;;;;3.13;2.00;;;;;;;;;;1017685;29;20027;-77
2023/05/02 02:22:19;;;;;;;6.03;1.23;;;;;;;;;;1014579;29;20040;-75
2023/05/02 02:22:50;;;;;;;0.90;0.57;;;;;;;;;;1017503;29;20031;-75
2023/05/02 02:23:22;;;;;;;4.40;1.08;;;;;;;;;;1023215;28;20038;-76
2023/05/02 02:23:55;;;;;;;2.05;1.77;;;;;;;;;;1023307;28;20150;-75
2023/05/02 02:24:26;;;;;;;1.90;1.75;;;;;;;;;;1023140;28;20774;-78
2023/05/02 02:24:57;;;;;;;2.60;2.10;;;;;;;;;;1025468;28;20031;-75
2023/05/02 02:25:28;;;;;;;3.13;0.80;;;;;;;;;;1025679;28;20035;-78
2023/05/02 02:26:00;;;;;;;0.43;0.43;;;;;;;;;;1025652;28;20026;-74
2023/05/02 02:26:30;;;;;;;10.40;1.80;;;;;;;;;;1023818;28;20032;-75
2023/05/02 02:27:01;;;;;;;2.83;1.35;;;;;;;;;;1025518;28;20034;-76
2023/05/02 02:27:32;;;;;;;0.80;0.50;;;;;;;;;;1025748;28;20019;-77
2023/05/02 02:28:03;;;;;;;0.57;0.52;;;;;;;;;;1025710;28;20038;-74
2023/05/02 02:28:33;;;;;;;4.70;2.05;;;;;;;;;;1025158;28;20031;-77
2023/05/02 02:29:04;;;;;;;1.58;1.20;;;;;;;;;;1024697;28;20051;-76
2023/05/02 02:29:34;;;;;;;6.60;1.52;;;;;;;;;;1025927;28;20482;-78
2023/05/02 02:30:06;;;;;;;0.82;0.80;;;;;;;;;;1024749;28;20461;-75
2023/05/02 02:30:36;;;;;;;1.42;1.08;;;;;;;;;;1025642;28;20149;-76
2023/05/02 02:31:07;;;;;;;1.63;0.85;;;;;;;;;;1022135;28;20415;-76
2023/05/02 02:31:38;;;;;;;1.35;1.00;;;;;;;;;;1020742;29;20114;-74
2023/05/02 02:32:09;;;;;;;7.63;1.73;;;;;;;;;;1019147;29;20516;-77
2023/05/02 02:32:39;;;;;;;0.90;0.85;;;;;;;;;;1016167;29;20032;-77
2023/05/02 02:33:10;;;;;;;1.52;0.60;;;;;;;;;;1013820;29;20087;-78
2023/05/02 02:33:40;;;;;;;1.30;0.80;;;;;;;;;;1017626;29;20436;-76
2023/05/02 02:34:14;;;;;;;8.45;1.52;;;;;;;;;;1018213;29;20042;-77
2023/05/02 02:34:44;;;;;;;2.30;0.47;;;;;;;;;;1018587;29;20042;-74
2023/05/02 02:35:17;;;;;;;2.50;1.10;;;;;;;;;;1021316;29;20565;-76
2023/05/02 02:35:51;;;;;;;7.97;1.70;;;;;;;;;;1017253;29;20028;-78
2023/05/02 02:36:32;;;;;;;1.52;0.95;;;;;;;;;;1018297;29;20451;-76
2023/05/02 02:37:12;;;;;;;1.08;0.63;;;;;;;;;;1021888;29;20027;-77
2023/05/02 02:37:43;;;;;;;4.22;2.25;;;;;;;;;;1024710;28;20030;-78
2023/05/02 02:38:25;;;;;;;0.90;0.85;;;;;;;;;;1022282;28;20481;-78
2023/05/02 02:39:17;;;;;;;2.38;1.38;;;;;;;;;;1020580;28;20027;-78
2023/05/02 02:40:03;;;;;;;1.30;1.00;;;;;;;;;;1018668;29;20031;-76
2023/05/02 02:40:41;;;;;;;2.22;0.38;;;;;;;;;;1030872;23;20465;-75
2023/05/02 02:41:23;;;;;;;2.80;1.25;;;;;;;;;;1023400;28;20069;-75
2023/05/02 02:42:06;;;;;;;0.52;0.38;;;;;;;;;;1021521;29;20237;-74
2023/05/02 02:42:43;;;;;;;1.02;0.28;;;;;;;;;;1020517;28;20038;-76
2023/05/02 02:43:14;;;;;;;1.63;1.23;;;;;;;;;;1021924;28;20126;-80
2023/05/02 02:43:51;;;;;;;1.33;0.70;;;;;;;;;;1017555;28;20031;-75
2023/05/02 02:44:27;;;;;;;0.77;0.68;;;;;;;;;;1017797;29;20032;-78
2023/05/02 02:45:19;;;;;;;4.93;1.92;;;;;;;;;;1011730;29;20040;-77
2023/05/02 02:45:55;;;;;;;1.88;1.08;;;;;;;;;;1019745;29;20030;-77
2023/05/02 02:46:41;;;;;;;0.55;0.50;;;;;;;;;;1013365;29;20055;-77
2023/05/02 02:47:21;;;;;;;1.17;0.52;;;;;;;;;;1016009;29;20131;-76
2023/05/02 02:48:33;;;;;;;3.17;1.02;;;;;;;;;;1015605;29;20032;-76
2023/05/02 02:49:13;;;;;;;12.27;1.45;;;;;;;;;;1010240;29;20060;-74
2023/05/02 02:49:59;;;;;;;0.55;0.50;;;;;;;;;;1010453;29;20036;-78
2023/05/02 02:50:31;;;;;;;2.22;1.95;;;;;;;;;;1005737;29;20088;-77
2023/05/02 02:51:11;;;;;;;15.88;3.22;;;;;;;;;;1005340;29;20580;-78
2023/05/02 02:52:05;;;;;;;8.23;1.05;;;;;;;;;;1004052;29;20025;-76
2023/05/02 02:52:56;;;;;;;9.27;2.22;;;;;;;;;;998006;29;20194;-76
2023/05/02 02:53:53;;;;;;;1.58;0.77;;;;;;;;;;998322;29;20199;-79
2023/05/02 02:54:45;;;;;;;0.95;0.65;;;;;;;;;;1003142;29;20614;-77
2023/05/02 02:55:37;;;;;;;1.25;0.75;;;;;;;;;;1017524;29;20028;-77
2023/05/02 02:56:14;;;;;;;3.17;0.63;;;;;;;;;;1017332;29;20086;-78
2023/05/02 02:56:46;;;;;;;2.20;1.17;;;;;;;;;;1017585;29;20028;-77
2023/05/02 02:57:36;;;;;;;7.70;0.65;;;;;;;;;;1019980;28;20035;-77
2023/05/02 02:58:07;;;;;;;;;;;;;;;;;;1018795;29;20027;-76
2023/05/02 02:58:49;;;;;;;9.50;1.38;;;;;;;;;;1018245;29;19918;-75
2023/05/02 03:00:00;;;;;;;;;;;;;;;;;;1076757;23;20284;-75
2023/05/02 03:02:14;;;;;;;3.58;0.65;;;;;;;;;;1014016;29;19930;-79
2023/05/02 03:02:45;;;;;;;0.88;0.68;;;;;;;;;;1017156;29;20036;-79
2023/05/02 03:03:17;;;;;;;14.50;1.55;;;;;;;;;;1018452;29;20098;-80
2023/05/02 03:03:50;;;;;;;1.35;1.25;;;;;;;;;;1018161;29;20059;-80
2023/05/02 03:04:22;;;;;;;0.70;0.50;;;;;;;;;;1012981;29;20044;-79
2023/05/02 03:04:53;;;;;;;1.70;1.10;;;;;;;;;;1014217;29;20031;-79
2023/05/02 03:05:24;;;;;;;4.90;1.15;;;;;;;;;;1014658;29;20062;-79
2023/05/02 03:05:56;;;;;;;5.05;2.88;;;;;;;;;;1013952;29;20419;-79
2023/05/02 03:06:26;;;;;;;3.88;2.00;;;;;;;;;;1017321;29;20549;-77
2023/05/02 03:06:57;;;;;;;1.00;0.60;;;;;;;;;;1017394;29;21417;-78
2023/05/02 03:07:27;;;;;;;1.30;0.73;;;;;;;;;;1015218;29;20043;-79
2023/05/02 03:07:59;;;;;;;7.95;1.48;;;;;;;;;;1018451;29;20059;-78
2023/05/02 03:08:37;;;;;;;5.25;1.65;;;;;;;;;;1018444;29;20130;-79
2023/05/02 03:09:17;;;;;;;3.00;2.53;;;;;;;;;;1018043;29;20035;-78
2023/05/02 03:09:47;;;;;;;0.88;0.68;;;;;;;;;;1016449;29;20488;-78
2023/05/02 03:10:18;;;;;;;1.08;0.85;;;;;;;;;;1017401;29;20031;-79
2023/05/02 03:10:49;;;;;;;2.28;2.08;;;;;;;;;;1019073;29;20037;-78
2023/05/02 03:11:19;;;;;;;3.20;1.65;;;;;;;;;;1017219;29;20027;-78
2023/05/02 03:11:50;;;;;;;3.63;1.35;;;;;;;;;;1017129;29;20027;-79
2023/05/02 03:12:21;;;;;;;3.55;1.38;;;;;;;;;;1011788;29;20029;-79
2023/05/02 03:12:54;;;;;;;9.27;1.17;;;;;;;;;;1011166;29;20032;-78
2023/05/02 03:13:25;;;;;;;1.92;1.20;;;;;;;;;;1012895;29;20058;-78
2023/05/02 03:13:55;;;;;;;7.15;2.72;;;;;;;;;;1014180;29;21051;-79
2023/05/02 03:14:26;;;;;;;1.33;1.10;;;;;;;;;;1010648;29;20123;-79
2023/05/02 03:15:12;;;;;;;2.88;1.02;;;;;;;;;;1006704;29;20028;-79
2023/05/02 03:16:01;;;;;;;2.30;1.25;;;;;;;;;;1004273;29;20037;-80
2023/05/02 03:16:36;;;;;;;0.68;0.68;;;;;;;;;;1010343;29;20033;-79
2023/05/02 03:17:10;;;;;;;3.53;2.90;;;;;;;;;;1012321;29;20127;-80
2023/05/02 03:17:40;;;;;;;0.93;0.80;;;;;;;;;;1012847;29;20537;-79
2023/05/02 03:18:11;;;;;;;2.38;1.48;;;;;;;;;;1012628;29;20324;-80
2023/05/02 03:18:41;;;;;;;2.08;1.10;;;;;;;;;;1012937;29;20072;-79
2023/05/02 03:19:12;;;;;;;5.57;1.77;;;;;;;;;;1012898;29;20361;-79
2023/05/02 03:19:44;;;;;;;4.38;1.23;;;;;;;;;;1014304;29;20123;-79
2023/05/02 03:20:18;;;;;;;0.35;0.35;;;;;;;;;;1011733;29;20075;-79
2023/05/02 03:20:48;;;;;;;1.65;0.57;;;;;;;;;;1012983;29;20876;-80
2023/05/02 03:21:19;;;;;;;2.35;1.63;;;;;;;;;;1009279;29;20060;-79
2023/05/02 03:21:50;;;;;;;1.10;0.57;;;;;;;;;;1010374;29;20032;-80
2023/05/02 03:22:20;;;;;;;4.32;1.13;;;;;;;;;;1014815;29;20432;-79